sensor_id;sensor_type;location;lat;lon;timestamp;P1;durP1;ratioP1;P2;durP2;ratioP2
15814;SDS011;8008;50.024;8.172;2023-12-04T04:02:08;17.67;;;8.93;;
15814;SDS011;8008;50.024;8.172;2023-12-04T04:04:36;17.87;;;8.77;;
15814;SDS011;8008;50.024;8.172;2023-12-04T04:07:04;16.57;;;8.67;;
15814;SDS011;8008;50.024;8.172;2023-12-04T04:09:32;15.20;;;8.53;;
15814;SDS011;8008;50.024;8.172;2023-12-04T04:12:00;18.10;;;9.33;;
15814;SDS011;8008;50.024;8.172;2023-12-04T04:14:28;17.00;;;9.10;;
15814;SDS011;8008;50.024;8.172;2023-12-04T04:16:56;18.67;;;9.40;;
15814;SDS011;8008;50.024;8.172;2023-12-04T04:19:25;19.10;;;9.03;;
15814;SDS011;8008;50.024;8.172;2023-12-04T04:21:53;18.03;;;9.37;;
15814;SDS011;8008;50.024;8.172;2023-12-04T04:24:21;17.10;;;8.83;;
15814;SDS011;8008;50.024;8.172;2023-12-04T04:26:49;19.23;;;9.07;;
15814;SDS011;8008;50.024;8.172;2023-12-04T04:29:17;19.00;;;9.63;;
15814;SDS011;8008;50.024;8.172;2023-12-04T04:31:45;17.47;;;8.60;;
15814;SDS011;8008;50.024;8.172;2023-12-04T04:34:13;17.70;;;9.43;;
15814;SDS011;8008;50.024;8.172;2023-12-04T04:36:43;19.73;;;9.77;;
15814;SDS011;8008;50.024;8.172;2023-12-04T04:39:11;18.33;;;9.23;;
15814;SDS011;8008;50.024;8.172;2023-12-04T04:41:40;18.37;;;9.43;;
15814;SDS011;8008;50.024;8.172;2023-12-04T04:44:08;18.87;;;9.10;;
15814;SDS011;8008;50.024;8.172;2023-12-04T04:46:36;20.10;;;8.67;;
15814;SDS011;8008;50.024;8.172;2023-12-04T04:49:04;18.73;;;9.30;;
15814;SDS011;8008;50.024;8.172;2023-12-04T04:51:33;19.43;;;9.37;;
15814;SDS011;8008;50.024;8.172;2023-12-04T04:54:02;18.30;;;9.43;;
15814;SDS011;8008;50.024;8.172;2023-12-04T04:56:31;20.37;;;9.67;;
15814;SDS011;8008;50.024;8.172;2023-12-04T04:58:59;16.53;;;8.77;;
15814;SDS011;8008;50.024;8.172;2023-12-04T05:01:27;18.43;;;9.17;;
15814;SDS011;8008;50.024;8.172;2023-12-04T05:03:56;21.97;;;10.73;;
15814;SDS011;8008;50.024;8.172;2023-12-04T05:06:24;17.93;;;9.27;;
15814;SDS011;8008;50.024;8.172;2023-12-04T05:08:52;20.17;;;10.20;;
15814;SDS011;8008;50.024;8.172;2023-12-04T05:11:22;16.57;;;9.87;;
15814;SDS011;8008;50.024;8.172;2023-12-04T05:13:50;18.67;;;9.87;;
15814;SDS011;8008;50.024;8.172;2023-12-04T05:16:18;17.60;;;9.27;;
15814;SDS011;8008;50.024;8.172;2023-12-04T05:18:46;16.93;;;9.20;;
15814;SDS011;8008;50.024;8.172;2023-12-04T05:21:14;19.00;;;9.70;;
15814;SDS011;8008;50.024;8.172;2023-12-04T05:23:42;18.63;;;9.50;;
15814;SDS011;8008;50.024;8.172;2023-12-04T05:26:10;16.57;;;9.20;;
15814;SDS011;8008;50.024;8.172;2023-12-04T05:28:39;16.77;;;8.67;;
15814;SDS011;8008;50.024;8.172;2023-12-04T05:31:07;19.50;;;9.00;;
15814;SDS011;8008;50.024;8.172;2023-12-04T05:33:35;17.93;;;9.67;;
15814;SDS011;8008;50.024;8.172;2023-12-04T05:36:06;18.30;;;9.03;;
15814;SDS011;8008;50.024;8.172;2023-12-04T05:38:35;17.13;;;8.60;;
15814;SDS011;8008;50.024;8.172;2023-12-04T05:41:03;17.40;;;9.00;;
15814;SDS011;8008;50.024;8.172;2023-12-04T05:43:31;20.13;;;9.77;;
15814;SDS011;8008;50.024;8.172;2023-12-04T05:46:00;19.03;;;9.57;;
15814;SDS011;8008;50.024;8.172;2023-12-04T05:48:28;18.37;;;9.40;;
15814;SDS011;8008;50.024;8.172;2023-12-04T05:50:56;18.40;;;9.87;;
15814;SDS011;8008;50.024;8.172;2023-12-04T05:53:24;22.63;;;11.40;;
15814;SDS011;8008;50.024;8.172;2023-12-04T05:55:52;21.70;;;10.47;;
15814;SDS011;8008;50.024;8.172;2023-12-04T05:58:20;22.13;;;10.77;;
15814;SDS011;8008;50.024;8.172;2023-12-04T06:00:48;21.87;;;11.03;;
15814;SDS011;8008;50.024;8.172;2023-12-04T06:03:18;21.40;;;10.77;;
15814;SDS011;8008;50.024;8.172;2023-12-04T06:05:46;22.47;;;11.10;;
15814;SDS011;8008;50.024;8.172;2023-12-04T06:08:14;22.47;;;11.70;;
15814;SDS011;8008;50.024;8.172;2023-12-04T06:10:42;20.90;;;10.70;;
15814;SDS011;8008;50.024;8.172;2023-12-04T06:13:10;21.57;;;10.50;;
15814;SDS011;8008;50.024;8.172;2023-12-04T06:15:38;19.23;;;9.87;;
15814;SDS011;8008;50.024;8.172;2023-12-04T06:18:06;20.03;;;10.20;;
15814;SDS011;8008;50.024;8.172;2023-12-04T06:20:35;20.93;;;10.07;;
15814;SDS011;8008;50.024;8.172;2023-12-04T06:23:03;19.03;;;9.30;;
15814;SDS011;8008;50.024;8.172;2023-12-04T06:25:31;19.17;;;9.80;;
15814;SDS011;8008;50.024;8.172;2023-12-04T06:28:00;17.97;;;9.27;;
15814;SDS011;8008;50.024;8.172;2023-12-04T06:30:29;17.67;;;9.70;;
15814;SDS011;8008;50.024;8.172;2023-12-04T06:32:57;20.33;;;10.07;;
15814;SDS011;8008;50.024;8.172;2023-12-04T06:35:25;19.83;;;10.10;;
15814;SDS011;8008;50.024;8.172;2023-12-04T06:37:55;18.23;;;10.07;;
15814;SDS011;8008;50.024;8.172;2023-12-04T06:40:30;18.30;;;9.47;;
15814;SDS011;8008;50.024;8.172;2023-12-04T06:42:59;18.83;;;9.57;;
15814;SDS011;8008;50.024;8.172;2023-12-04T06:45:28;17.70;;;9.50;;
15814;SDS011;8008;50.024;8.172;2023-12-04T06:47:58;19.20;;;10.27;;
15814;SDS011;8008;50.024;8.172;2023-12-04T06:50:27;19.17;;;9.47;;
15814;SDS011;8008;50.024;8.172;2023-12-04T06:52:56;18.77;;;9.10;;
15814;SDS011;8008;50.024;8.172;2023-12-04T06:55:24;20.53;;;9.47;;
15814;SDS011;8008;50.024;8.172;2023-12-04T06:57:52;19.97;;;9.40;;
15814;SDS011;8008;50.024;8.172;2023-12-04T07:00:20;19.40;;;9.53;;
15814;SDS011;8008;50.024;8.172;2023-12-04T07:02:48;20.33;;;9.80;;
15814;SDS011;8008;50.024;8.172;2023-12-04T07:05:17;21.20;;;9.53;;
15814;SDS011;8008;50.024;8.172;2023-12-04T07:07:47;19.93;;;10.10;;
15814;SDS011;8008;50.024;8.172;2023-12-04T07:10:16;23.15;;;10.45;;
15814;SDS011;8008;50.024;8.172;2023-12-04T07:12:44;20.30;;;10.33;;
15814;SDS011;8008;50.024;8.172;2023-12-04T07:15:12;18.07;;;9.50;;
15814;SDS011;8008;50.024;8.172;2023-12-04T07:17:40;22.20;;;10.03;;
15814;SDS011;8008;50.024;8.172;2023-12-04T07:20:09;19.70;;;9.53;;
15814;SDS011;8008;50.024;8.172;2023-12-04T07:22:38;20.43;;;10.30;;
15814;SDS011;8008;50.024;8.172;2023-12-04T07:25:06;19.07;;;9.80;;
15814;SDS011;8008;50.024;8.172;2023-12-04T07:27:36;18.40;;;9.40;;
15814;SDS011;8008;50.024;8.172;2023-12-04T07:30:05;20.37;;;10.07;;
15814;SDS011;8008;50.024;8.172;2023-12-04T07:32:34;19.07;;;10.17;;
15814;SDS011;8008;50.024;8.172;2023-12-04T07:35:02;18.30;;;9.50;;
15814;SDS011;8008;50.024;8.172;2023-12-04T07:37:31;19.30;;;9.50;;
15814;SDS011;8008;50.024;8.172;2023-12-04T07:39:58;19.70;;;9.93;;
15814;SDS011;8008;50.024;8.172;2023-12-04T07:42:26;20.20;;;9.63;;
15814;SDS011;8008;50.024;8.172;2023-12-04T07:44:56;21.50;;;10.00;;
15814;SDS011;8008;50.024;8.172;2023-12-04T07:47:24;18.27;;;9.87;;
15814;SDS011;8008;50.024;8.172;2023-12-04T07:49:52;21.63;;;10.47;;
15814;SDS011;8008;50.024;8.172;2023-12-04T07:52:20;19.00;;;9.87;;
15814;SDS011;8008;50.024;8.172;2023-12-04T07:54:48;18.87;;;9.47;;
15814;SDS011;8008;50.024;8.172;2023-12-04T07:57:16;17.00;;;8.73;;
15814;SDS011;8008;50.024;8.172;2023-12-04T07:59:44;17.93;;;9.07;;
15814;SDS011;8008;50.024;8.172;2023-12-04T08:02:17;18.80;;;9.93;;
15814;SDS011;8008;50.024;8.172;2023-12-04T08:04:45;18.53;;;9.00;;
15814;SDS011;8008;50.024;8.172;2023-12-04T08:07:13;19.60;;;9.17;;
15814;SDS011;8008;50.024;8.172;2023-12-04T08:09:41;18.13;;;9.07;;
15814;SDS011;8008;50.024;8.172;2023-12-04T08:12:09;19.57;;;9.50;;
15814;SDS011;8008;50.024;8.172;2023-12-04T08:14:37;19.53;;;9.20;;
15814;SDS011;8008;50.024;8.172;2023-12-04T08:17:05;17.37;;;8.77;;
15814;SDS011;8008;50.024;8.172;2023-12-04T08:19:34;24.23;;;9.40;;
15814;SDS011;8008;50.024;8.172;2023-12-04T08:22:04;18.53;;;9.33;;
15814;SDS011;8008;50.024;8.172;2023-12-04T08:24:32;17.63;;;9.37;;
15814;SDS011;8008;50.024;8.172;2023-12-04T08:27:00;19.00;;;9.80;;
15814;SDS011;8008;50.024;8.172;2023-12-04T08:29:28;19.33;;;9.27;;
15814;SDS011;8008;50.024;8.172;2023-12-04T08:31:57;18.03;;;9.30;;
15814;SDS011;8008;50.024;8.172;2023-12-04T08:34:25;17.73;;;8.87;;
15814;SDS011;8008;50.024;8.172;2023-12-04T08:36:54;17.67;;;9.43;;
15814;SDS011;8008;50.024;8.172;2023-12-04T08:39:22;18.33;;;9.47;;
15814;SDS011;8008;50.024;8.172;2023-12-04T08:41:50;16.67;;;9.30;;
15814;SDS011;8008;50.024;8.172;2023-12-04T08:44:28;17.10;;;8.70;;
15814;SDS011;8008;50.024;8.172;2023-12-04T08:46:56;15.73;;;8.57;;
15814;SDS011;8008;50.024;8.172;2023-12-04T08:49:26;16.37;;;8.40;;
15814;SDS011;8008;50.024;8.172;2023-12-04T08:52:09;18.60;;;9.17;;
15814;SDS011;8008;50.024;8.172;2023-12-04T08:54:38;18.70;;;8.93;;
15814;SDS011;8008;50.024;8.172;2023-12-04T08:57:07;18.63;;;8.87;;
15814;SDS011;8008;50.024;8.172;2023-12-04T08:59:35;18.03;;;9.20;;
15814;SDS011;8008;50.024;8.172;2023-12-04T09:02:04;24.63;;;10.60;;
15814;SDS011;8008;50.024;8.172;2023-12-04T09:04:32;20.60;;;9.50;;
15814;SDS011;8008;50.024;8.172;2023-12-04T09:07:01;15.47;;;8.97;;
15814;SDS011;8008;50.024;8.172;2023-12-04T09:09:50;15.93;;;8.37;;
15814;SDS011;8008;50.024;8.172;2023-12-04T09:12:18;20.43;;;8.90;;
15814;SDS011;8008;50.024;8.172;2023-12-04T09:14:46;16.83;;;8.40;;
15814;SDS011;8008;50.024;8.172;2023-12-04T09:17:14;14.60;;;7.87;;
15814;SDS011;8008;50.024;8.172;2023-12-04T09:19:42;15.50;;;8.77;;
15814;SDS011;8008;50.024;8.172;2023-12-04T09:22:11;14.83;;;8.43;;
15814;SDS011;8008;50.024;8.172;2023-12-04T09:24:46;15.27;;;8.33;;
15814;SDS011;8008;50.024;8.172;2023-12-04T09:27:16;16.03;;;8.30;;
15814;SDS011;8008;50.024;8.172;2023-12-04T09:29:44;14.97;;;8.17;;
15814;SDS011;8008;50.024;8.172;2023-12-04T09:32:12;16.10;;;8.23;;
15814;SDS011;8008;50.024;8.172;2023-12-04T09:34:40;16.00;;;8.70;;
15814;SDS011;8008;50.024;8.172;2023-12-04T09:37:08;15.83;;;8.23;;
15814;SDS011;8008;50.024;8.172;2023-12-04T09:39:39;14.77;;;8.03;;
15814;SDS011;8008;50.024;8.172;2023-12-04T09:42:07;18.47;;;8.70;;
15814;SDS011;8008;50.024;8.172;2023-12-04T09:44:38;18.60;;;8.77;;
15814;SDS011;8008;50.024;8.172;2023-12-04T09:47:07;17.00;;;9.10;;
15814;SDS011;8008;50.024;8.172;2023-12-04T09:49:36;18.30;;;8.60;;
15814;SDS011;8008;50.024;8.172;2023-12-04T09:52:05;17.43;;;8.43;;
15814;SDS011;8008;50.024;8.172;2023-12-04T09:54:34;15.83;;;8.60;;
15814;SDS011;8008;50.024;8.172;2023-12-04T09:57:03;18.00;;;9.10;;
15814;SDS011;8008;50.024;8.172;2023-12-04T09:59:32;17.40;;;8.93;;
15814;SDS011;8008;50.024;8.172;2023-12-04T10:02:03;16.40;;;8.77;;
15814;SDS011;8008;50.024;8.172;2023-12-04T10:04:32;17.53;;;8.97;;
15814;SDS011;8008;50.024;8.172;2023-12-04T10:07:01;19.33;;;8.93;;
15814;SDS011;8008;50.024;8.172;2023-12-04T10:09:29;18.10;;;9.33;;
15814;SDS011;8008;50.024;8.172;2023-12-04T10:11:57;19.37;;;9.17;;
15814;SDS011;8008;50.024;8.172;2023-12-04T10:14:26;17.90;;;8.50;;
15814;SDS011;8008;50.024;8.172;2023-12-04T10:16:54;15.23;;;8.53;;
15814;SDS011;8008;50.024;8.172;2023-12-04T10:19:24;14.10;;;7.93;;
15814;SDS011;8008;50.024;8.172;2023-12-04T10:21:54;15.57;;;8.57;;
15814;SDS011;8008;50.024;8.172;2023-12-04T10:24:26;17.17;;;8.73;;
15814;SDS011;8008;50.024;8.172;2023-12-04T10:26:59;16.50;;;8.37;;
15814;SDS011;8008;50.024;8.172;2023-12-04T10:29:28;16.67;;;9.03;;
15814;SDS011;8008;50.024;8.172;2023-12-04T10:32:08;15.53;;;8.70;;
15814;SDS011;8008;50.024;8.172;2023-12-04T10:34:37;16.17;;;8.10;;
15814;SDS011;8008;50.024;8.172;2023-12-04T10:37:06;16.57;;;8.33;;
15814;SDS011;8008;50.024;8.172;2023-12-04T10:39:36;18.93;;;8.67;;
15814;SDS011;8008;50.024;8.172;2023-12-04T10:42:22;14.77;;;7.80;;
15814;SDS011;8008;50.024;8.172;2023-12-04T10:44:52;21.00;;;9.13;;
15814;SDS011;8008;50.024;8.172;2023-12-04T10:47:22;16.70;;;8.53;;
15814;SDS011;8008;50.024;8.172;2023-12-04T10:49:53;16.97;;;8.57;;
15814;SDS011;8008;50.024;8.172;2023-12-04T10:52:21;20.37;;;8.97;;
15814;SDS011;8008;50.024;8.172;2023-12-04T10:54:50;15.70;;;7.93;;
15814;SDS011;8008;50.024;8.172;2023-12-04T10:57:21;16.63;;;8.20;;
15814;SDS011;8008;50.024;8.172;2023-12-04T10:59:54;15.77;;;8.40;;
15814;SDS011;8008;50.024;8.172;2023-12-04T11:02:25;15.93;;;8.53;;
15814;SDS011;8008;50.024;8.172;2023-12-04T11:04:58;14.93;;;8.03;;
15814;SDS011;8008;50.024;8.172;2023-12-04T11:07:30;18.70;;;9.07;;
15814;SDS011;8008;50.024;8.172;2023-12-04T11:10:22;15.47;;;8.47;;
15814;SDS011;8008;50.024;8.172;2023-12-04T11:12:51;15.93;;;8.47;;
15814;SDS011;8008;50.024;8.172;2023-12-04T11:15:23;17.30;;;8.83;;
15814;SDS011;8008;50.024;8.172;2023-12-04T11:17:53;18.33;;;8.90;;
15814;SDS011;8008;50.024;8.172;2023-12-04T11:20:29;16.20;;;9.20;;
15814;SDS011;8008;50.024;8.172;2023-12-04T11:22:59;16.40;;;8.60;;
15814;SDS011;8008;50.024;8.172;2023-12-04T11:25:32;18.70;;;8.57;;
15814;SDS011;8008;50.024;8.172;2023-12-04T11:28:02;19.03;;;9.00;;
15814;SDS011;8008;50.024;8.172;2023-12-04T11:30:34;16.23;;;8.63;;
15814;SDS011;8008;50.024;8.172;2023-12-04T11:33:04;17.83;;;9.47;;
15814;SDS011;8008;50.024;8.172;2023-12-04T11:35:34;18.73;;;8.83;;
15814;SDS011;8008;50.024;8.172;2023-12-04T11:38:02;19.33;;;8.90;;
15814;SDS011;8008;50.024;8.172;2023-12-04T11:40:33;17.20;;;8.53;;
15814;SDS011;8008;50.024;8.172;2023-12-04T11:43:04;22.97;;;9.77;;
15814;SDS011;8008;50.024;8.172;2023-12-04T11:45:47;17.60;;;9.27;;
15814;SDS011;8008;50.024;8.172;2023-12-04T11:48:15;18.17;;;9.63;;
15814;SDS011;8008;50.024;8.172;2023-12-04T11:50:45;17.60;;;9.93;;
15814;SDS011;8008;50.024;8.172;2023-12-04T11:53:14;19.27;;;9.90;;
15814;SDS011;8008;50.024;8.172;2023-12-04T11:55:42;26.40;;;10.33;;
15814;SDS011;8008;50.024;8.172;2023-12-04T11:58:11;21.67;;;10.50;;
15814;SDS011;8008;50.024;8.172;2023-12-04T12:00:41;20.07;;;10.73;;
15814;SDS011;8008;50.024;8.172;2023-12-04T12:03:09;20.43;;;10.17;;
15814;SDS011;8008;50.024;8.172;2023-12-04T12:05:50;18.43;;;9.33;;
15814;SDS011;8008;50.024;8.172;2023-12-04T12:08:19;20.70;;;10.03;;
15814;SDS011;8008;50.024;8.172;2023-12-04T12:10:50;17.63;;;9.13;;
15814;SDS011;8008;50.024;8.172;2023-12-04T12:13:18;15.73;;;9.27;;
15814;SDS011;8008;50.024;8.172;2023-12-04T12:15:47;19.90;;;9.30;;
15814;SDS011;8008;50.024;8.172;2023-12-04T12:18:17;18.13;;;9.13;;
15814;SDS011;8008;50.024;8.172;2023-12-04T12:20:45;22.73;;;13.00;;
15814;SDS011;8008;50.024;8.172;2023-12-04T12:23:14;18.93;;;10.47;;
15814;SDS011;8008;50.024;8.172;2023-12-04T12:25:42;18.20;;;9.80;;
15814;SDS011;8008;50.024;8.172;2023-12-04T12:28:10;18.63;;;9.43;;
15814;SDS011;8008;50.024;8.172;2023-12-04T12:30:38;18.10;;;9.30;;
15814;SDS011;8008;50.024;8.172;2023-12-04T12:33:08;17.30;;;9.23;;
15814;SDS011;8008;50.024;8.172;2023-12-04T12:35:40;19.37;;;9.67;;
15814;SDS011;8008;50.024;8.172;2023-12-04T12:38:17;19.37;;;9.87;;
15814;SDS011;8008;50.024;8.172;2023-12-04T12:40:47;20.67;;;9.67;;
15814;SDS011;8008;50.024;8.172;2023-12-04T12:43:15;21.03;;;9.90;;
15814;SDS011;8008;50.024;8.172;2023-12-04T12:45:43;19.63;;;9.70;;
15814;SDS011;8008;50.024;8.172;2023-12-04T12:48:15;21.47;;;9.30;;
15814;SDS011;8008;50.024;8.172;2023-12-04T12:50:44;19.13;;;9.33;;
15814;SDS011;8008;50.024;8.172;2023-12-04T12:53:14;19.30;;;9.67;;
15814;SDS011;8008;50.024;8.172;2023-12-04T12:55:43;20.73;;;9.90;;
15814;SDS011;8008;50.024;8.172;2023-12-04T12:58:11;21.40;;;10.10;;
15814;SDS011;8008;50.024;8.172;2023-12-04T13:00:40;21.33;;;10.23;;
15814;SDS011;8008;50.024;8.172;2023-12-04T13:03:13;18.83;;;9.67;;
15814;SDS011;8008;50.024;8.172;2023-12-04T13:05:42;22.30;;;10.10;;
15814;SDS011;8008;50.024;8.172;2023-12-04T13:08:10;19.70;;;9.07;;
15814;SDS011;8008;50.024;8.172;2023-12-04T13:10:39;15.73;;;8.73;;
15814;SDS011;8008;50.024;8.172;2023-12-04T13:13:10;16.37;;;9.03;;
15814;SDS011;8008;50.024;8.172;2023-12-04T13:15:38;19.33;;;9.10;;
15814;SDS011;8008;50.024;8.172;2023-12-04T13:18:08;16.53;;;8.37;;
15814;SDS011;8008;50.024;8.172;2023-12-04T13:20:36;15.37;;;8.77;;
15814;SDS011;8008;50.024;8.172;2023-12-04T13:23:04;14.73;;;8.90;;
15814;SDS011;8008;50.024;8.172;2023-12-04T13:25:32;18.57;;;8.90;;
15814;SDS011;8008;50.024;8.172;2023-12-04T13:28:00;17.00;;;9.40;;
15814;SDS011;8008;50.024;8.172;2023-12-04T13:30:29;17.20;;;9.40;;
15814;SDS011;8008;50.024;8.172;2023-12-04T13:32:59;15.77;;;8.83;;
15814;SDS011;8008;50.024;8.172;2023-12-04T13:35:28;16.80;;;8.93;;
15814;SDS011;8008;50.024;8.172;2023-12-04T13:37:56;17.27;;;9.33;;
15814;SDS011;8008;50.024;8.172;2023-12-04T13:40:25;15.43;;;9.23;;
15814;SDS011;8008;50.024;8.172;2023-12-04T13:42:58;18.03;;;9.37;;
15814;SDS011;8008;50.024;8.172;2023-12-04T13:45:45;16.70;;;9.40;;
15814;SDS011;8008;50.024;8.172;2023-12-04T13:48:12;17.00;;;8.87;;
15814;SDS011;8008;50.024;8.172;2023-12-04T13:50:43;18.07;;;9.20;;
15814;SDS011;8008;50.024;8.172;2023-12-04T13:53:11;16.73;;;9.70;;
15814;SDS011;8008;50.024;8.172;2023-12-04T13:55:41;17.63;;;9.23;;
15814;SDS011;8008;50.024;8.172;2023-12-04T13:58:27;19.90;;;9.33;;
15814;SDS011;8008;50.024;8.172;2023-12-04T14:01:06;19.70;;;9.83;;
15814;SDS011;8008;50.024;8.172;2023-12-04T14:03:41;17.97;;;10.17;;
15814;SDS011;8008;50.024;8.172;2023-12-04T14:06:10;17.77;;;9.87;;
15814;SDS011;8008;50.024;8.172;2023-12-04T14:08:39;19.77;;;9.37;;
15814;SDS011;8008;50.024;8.172;2023-12-04T14:11:07;15.93;;;9.03;;
15814;SDS011;8008;50.024;8.172;2023-12-04T14:13:37;17.03;;;9.57;;
15814;SDS011;8008;50.024;8.172;2023-12-04T14:16:09;19.07;;;9.73;;
15814;SDS011;8008;50.024;8.172;2023-12-04T14:18:37;16.83;;;9.20;;
15814;SDS011;8008;50.024;8.172;2023-12-04T14:21:06;17.07;;;8.90;;
15814;SDS011;8008;50.024;8.172;2023-12-04T14:23:35;22.77;;;9.63;;
15814;SDS011;8008;50.024;8.172;2023-12-04T14:26:03;18.97;;;9.50;;
15814;SDS011;8008;50.024;8.172;2023-12-04T14:28:31;19.67;;;9.67;;
15814;SDS011;8008;50.024;8.172;2023-12-04T14:31:10;21.17;;;10.17;;
15814;SDS011;8008;50.024;8.172;2023-12-04T14:33:38;16.80;;;9.70;;
15814;SDS011;8008;50.024;8.172;2023-12-04T14:36:09;21.30;;;10.20;;
15814;SDS011;8008;50.024;8.172;2023-12-04T14:38:39;17.73;;;9.67;;
15814;SDS011;8008;50.024;8.172;2023-12-04T14:41:07;19.87;;;10.13;;
15814;SDS011;8008;50.024;8.172;2023-12-04T14:43:36;20.03;;;9.80;;
15814;SDS011;8008;50.024;8.172;2023-12-04T14:46:05;17.80;;;9.87;;
15814;SDS011;8008;50.024;8.172;2023-12-04T14:48:38;18.00;;;9.43;;
15814;SDS011;8008;50.024;8.172;2023-12-04T14:51:07;19.17;;;9.53;;
15814;SDS011;8008;50.024;8.172;2023-12-04T14:53:37;17.27;;;9.73;;
15814;SDS011;8008;50.024;8.172;2023-12-04T14:56:13;17.73;;;9.77;;
15814;SDS011;8008;50.024;8.172;2023-12-04T14:58:58;18.43;;;9.47;;
15814;SDS011;8008;50.024;8.172;2023-12-04T15:01:59;15.10;;;8.90;;
15814;SDS011;8008;50.024;8.172;2023-12-04T15:05:13;20.17;;;10.07;;
15814;SDS011;8008;50.024;8.172;2023-12-04T15:07:59;17.23;;;9.57;;
15814;SDS011;8008;50.024;8.172;2023-12-04T15:10:43;19.83;;;10.00;;
15814;SDS011;8008;50.024;8.172;2023-12-04T15:13:48;19.47;;;10.30;;
15814;SDS011;8008;50.024;8.172;2023-12-04T15:16:22;21.17;;;10.50;;
15814;SDS011;8008;50.024;8.172;2023-12-04T15:19:10;19.20;;;9.80;;
15814;SDS011;8008;50.024;8.172;2023-12-04T15:21:56;20.10;;;10.17;;
15814;SDS011;8008;50.024;8.172;2023-12-04T15:24:24;20.67;;;10.87;;
15814;SDS011;8008;50.024;8.172;2023-12-04T15:26:51;19.47;;;9.77;;
15814;SDS011;8008;50.024;8.172;2023-12-04T15:29:19;19.77;;;10.60;;
15814;SDS011;8008;50.024;8.172;2023-12-04T15:31:46;23.23;;;10.53;;
15814;SDS011;8008;50.024;8.172;2023-12-04T15:34:14;19.07;;;10.23;;
15814;SDS011;8008;50.024;8.172;2023-12-04T15:36:43;18.70;;;10.67;;
15814;SDS011;8008;50.024;8.172;2023-12-04T15:39:12;21.83;;;10.50;;
15814;SDS011;8008;50.024;8.172;2023-12-04T15:41:44;20.50;;;10.40;;
15814;SDS011;8008;50.024;8.172;2023-12-04T15:44:11;18.57;;;10.40;;
15814;SDS011;8008;50.024;8.172;2023-12-04T15:46:39;24.97;;;10.77;;
15814;SDS011;8008;50.024;8.172;2023-12-04T15:49:06;22.10;;;10.27;;
15814;SDS011;8008;50.024;8.172;2023-12-04T15:51:34;20.03;;;10.03;;
15814;SDS011;8008;50.024;8.172;2023-12-04T15:54:01;17.10;;;9.43;;
15814;SDS011;8008;50.024;8.172;2023-12-04T15:56:33;17.40;;;9.50;;
15814;SDS011;8008;50.024;8.172;2023-12-04T15:59:00;21.67;;;10.90;;
15814;SDS011;8008;50.024;8.172;2023-12-04T16:01:28;20.47;;;10.20;;
15814;SDS011;8008;50.024;8.172;2023-12-04T16:03:56;23.10;;;10.80;;
15814;SDS011;8008;50.024;8.172;2023-12-04T16:06:25;19.33;;;9.83;;
15814;SDS011;8008;50.024;8.172;2023-12-04T16:08:53;23.73;;;10.87;;
15814;SDS011;8008;50.024;8.172;2023-12-04T16:11:23;20.40;;;10.93;;
15814;SDS011;8008;50.024;8.172;2023-12-04T16:13:53;21.67;;;10.33;;
15814;SDS011;8008;50.024;8.172;2023-12-04T16:16:22;19.20;;;9.63;;
15814;SDS011;8008;50.024;8.172;2023-12-04T16:18:50;19.97;;;10.33;;
15814;SDS011;8008;50.024;8.172;2023-12-04T16:21:18;19.60;;;10.17;;
15814;SDS011;8008;50.024;8.172;2023-12-04T16:23:47;20.53;;;10.43;;
15814;SDS011;8008;50.024;8.172;2023-12-04T16:26:17;17.73;;;10.00;;
15814;SDS011;8008;50.024;8.172;2023-12-04T16:28:45;18.70;;;10.17;;
15814;SDS011;8008;50.024;8.172;2023-12-04T16:31:14;19.43;;;9.90;;
15814;SDS011;8008;50.024;8.172;2023-12-04T16:33:42;18.67;;;9.47;;
15814;SDS011;8008;50.024;8.172;2023-12-04T16:36:11;20.10;;;10.40;;
15814;SDS011;8008;50.024;8.172;2023-12-04T16:38:39;18.37;;;9.53;;
15814;SDS011;8008;50.024;8.172;2023-12-04T16:41:07;18.83;;;9.70;;
15814;SDS011;8008;50.024;8.172;2023-12-04T16:43:35;19.53;;;10.20;;
15814;SDS011;8008;50.024;8.172;2023-12-04T16:46:03;22.10;;;10.27;;
15814;SDS011;8008;50.024;8.172;2023-12-04T16:48:34;21.03;;;9.97;;
15814;SDS011;8008;50.024;8.172;2023-12-04T16:51:02;18.93;;;9.30;;
15814;SDS011;8008;50.024;8.172;2023-12-04T16:53:31;22.83;;;10.87;;
15814;SDS011;8008;50.024;8.172;2023-12-04T16:55:59;22.37;;;10.73;;
15814;SDS011;8008;50.024;8.172;2023-12-04T16:58:27;19.33;;;10.10;;
15814;SDS011;8008;50.024;8.172;2023-12-04T17:00:55;19.73;;;10.27;;
15814;SDS011;8008;50.024;8.172;2023-12-04T17:03:25;18.53;;;10.20;;
15814;SDS011;8008;50.024;8.172;2023-12-04T17:05:54;18.57;;;9.90;;
15814;SDS011;8008;50.024;8.172;2023-12-04T17:08:22;20.60;;;9.93;;
15814;SDS011;8008;50.024;8.172;2023-12-04T17:10:50;17.87;;;9.30;;
15814;SDS011;8008;50.024;8.172;2023-12-04T17:13:18;23.47;;;11.13;;
15814;SDS011;8008;50.024;8.172;2023-12-04T17:15:46;19.70;;;10.23;;
15814;SDS011;8008;50.024;8.172;2023-12-04T17:18:14;18.63;;;9.83;;
15814;SDS011;8008;50.024;8.172;2023-12-04T17:20:45;19.10;;;9.20;;
15814;SDS011;8008;50.024;8.172;2023-12-04T17:23:14;16.93;;;9.60;;
15814;SDS011;8008;50.024;8.172;2023-12-04T17:25:42;20.97;;;10.83;;
15814;SDS011;8008;50.024;8.172;2023-12-04T17:28:10;22.27;;;10.13;;
15814;SDS011;8008;50.024;8.172;2023-12-04T17:30:38;18.97;;;9.37;;
15814;SDS011;8008;50.024;8.172;2023-12-04T17:33:06;20.60;;;10.70;;
15814;SDS011;8008;50.024;8.172;2023-12-04T17:35:34;18.70;;;10.50;;
15814;SDS011;8008;50.024;8.172;2023-12-04T17:38:02;21.07;;;10.30;;
15814;SDS011;8008;50.024;8.172;2023-12-04T17:40:32;20.23;;;9.63;;
15814;SDS011;8008;50.024;8.172;2023-12-04T17:43:00;18.87;;;10.20;;
15814;SDS011;8008;50.024;8.172;2023-12-04T17:45:28;20.27;;;10.50;;
15814;SDS011;8008;50.024;8.172;2023-12-04T17:47:59;17.00;;;9.63;;
15814;SDS011;8008;50.024;8.172;2023-12-04T17:50:27;16.67;;;10.10;;
15814;SDS011;8008;50.024;8.172;2023-12-04T17:52:55;17.47;;;9.37;;
15814;SDS011;8008;50.024;8.172;2023-12-04T17:55:23;18.60;;;9.73;;
15814;SDS011;8008;50.024;8.172;2023-12-04T17:57:53;16.93;;;9.90;;
15814;SDS011;8008;50.024;8.172;2023-12-04T18:00:25;18.90;;;9.40;;
15814;SDS011;8008;50.024;8.172;2023-12-04T18:02:53;18.97;;;10.13;;
15814;SDS011;8008;50.024;8.172;2023-12-04T18:05:21;18.83;;;10.67;;
15814;SDS011;8008;50.024;8.172;2023-12-04T18:07:49;19.83;;;9.47;;
15814;SDS011;8008;50.024;8.172;2023-12-04T18:10:17;17.57;;;9.93;;
15814;SDS011;8008;50.024;8.172;2023-12-04T18:12:46;18.43;;;10.17;;
15814;SDS011;8008;50.024;8.172;2023-12-04T18:15:15;17.97;;;9.43;;
15814;SDS011;8008;50.024;8.172;2023-12-04T18:17:43;15.57;;;9.20;;
15814;SDS011;8008;50.024;8.172;2023-12-04T18:20:12;18.13;;;10.37;;
15814;SDS011;8008;50.024;8.172;2023-12-04T18:22:42;18.47;;;9.93;;
15814;SDS011;8008;50.024;8.172;2023-12-04T18:25:12;18.63;;;9.63;;
15814;SDS011;8008;50.024;8.172;2023-12-04T18:27:41;22.33;;;10.60;;
15814;SDS011;8008;50.024;8.172;2023-12-04T18:30:10;20.83;;;10.87;;
15814;SDS011;8008;50.024;8.172;2023-12-04T18:32:42;20.75;;;13.63;;
15814;SDS011;8008;50.024;8.172;2023-12-04T18:35:11;18.97;;;10.83;;
15814;SDS011;8008;50.024;8.172;2023-12-04T18:37:44;19.73;;;11.10;;
15814;SDS011;8008;50.024;8.172;2023-12-04T18:40:15;19.27;;;11.10;;
15814;SDS011;8008;50.024;8.172;2023-12-04T18:42:44;22.63;;;11.90;;
15814;SDS011;8008;50.024;8.172;2023-12-04T18:45:13;27.17;;;12.67;;
15814;SDS011;8008;50.024;8.172;2023-12-04T18:47:44;18.47;;;11.00;;
15814;SDS011;8008;50.024;8.172;2023-12-04T18:50:16;19.77;;;10.87;;
15814;SDS011;8008;50.024;8.172;2023-12-04T18:52:45;19.67;;;11.00;;
15814;SDS011;8008;50.024;8.172;2023-12-04T18:55:13;18.90;;;10.70;;
15814;SDS011;8008;50.024;8.172;2023-12-04T18:57:41;20.00;;;10.83;;
15814;SDS011;8008;50.024;8.172;2023-12-04T19:00:10;19.70;;;10.80;;